Inzhener Veshnyakov — UBDJ3 — position and weather

sailwx.info

Track history (hours):
 
Tides and Currents Weather Stations Pressure Air Temp Water Temp Dewpoint Dewpoint Depression Visibility Wind Speed Wind Dir Waves Ship Positions

Inzhener Veshnyakov

Last reported at 2017-Sep-07 12:05 UTC. Time now 2017-Oct-22 23:11 UTC.
Position N 71°20' E 029°31'.
Warning: this ship's position is 45 days out of date.

Length 131 m; draft 5.6 m.

Type: Cargo ship. MMSI: 273354480.

Date/timePositionNaut miles runAvg speedWind from/ knotsBaromVisibWave heightAir tempDewpointWater temp
2017-Sep-07 12:05N 71°20' E 029°31'112.1
2017-Sep-07 12:00N 71°20' E 029°27'  
2017-Sep-04 08:38N 61°03' E 004°15'214.0
2017-Sep-04 08:30N 61°01' E 004°15'713.6
2017-Sep-04 08:00N 60°55' E 004°16'35812.1
2017-Sep-03 02:23N 55°04' E 006°37'1111.7
2017-Sep-03 01:29N 54°54' E 006°43'6911.3
2017-Sep-02 19:21N 54°02' E 008°02'411.0
2017-Sep-02 19:00N 54°00' E 008°08'510.5
2017-Sep-02 18:30N 53°60' E 008°17'510.3
2017-Sep-02 18:00N 53°59' E 008°25'510.4
2017-Sep-02 17:30N 53°58' E 008°34'510.9
2017-Sep-02 17:00N 53°55' E 008°41'612.6
2017-Sep-02 16:30N 53°50' E 008°49'714.0
2017-Sep-02 16:00N 53°51' E 009°01'713.0
2017-Sep-02 15:30N 53°53' E 009°12'612.8
2017-Sep-02 15:00N 53°50' E 009°21'714.0
2017-Sep-02 14:30N 53°44' E 009°27'713.4
2017-Sep-02 14:00N 53°38' E 009°32'713.1
2017-Sep-02 13:31N 53°34' E 009°41'612.3
2017-Sep-02 13:00N 53°33' E 009°51'4 8.9
2017-Sep-02 12:31N 53°30' E 009°57'1 2.4
2017-Sep-02 11:58N 53°29' E 009°59'0 0.0
2017-Sep-02 11:28N 53°29' E 009°59'0 0.0
2017-Sep-02 10:58N 53°29' E 009°59'0 0.0
2017-Sep-02 10:28N 53°29' E 009°59'0 0.0
2017-Sep-02 09:58N 53°29' E 009°59'0 0.0
2017-Sep-02 09:28N 53°29' E 009°59'0 0.0
2017-Sep-02 08:58N 53°29' E 009°59'0 0.0
2017-Sep-02 08:28N 53°29' E 009°59'0 0.0
2017-Sep-02 07:58N 53°29' E 009°59'0 0.0
2017-Sep-02 07:28N 53°29' E 009°59'0 0.0
2017-Sep-02 06:58N 53°29' E 009°59'0 0.0
2017-Sep-02 06:28N 53°29' E 009°59'0 0.0
2017-Sep-02 05:58N 53°29' E 009°59'0 0.0
2017-Sep-02 05:28N 53°29' E 009°59'0 0.0
2017-Sep-02 04:58N 53°29' E 009°59'0 0.0
2017-Sep-02 04:28N 53°29' E 009°59'0 0.0
2017-Sep-02 03:58N 53°29' E 009°59'0 0.0
2017-Sep-02 03:28N 53°29' E 009°59'0 0.0
2017-Sep-02 02:58N 53°29' E 009°59'0 0.0
2017-Sep-02 02:28N 53°29' E 009°59'0 0.0
2017-Sep-02 01:58N 53°29' E 009°59'0 0.0
2017-Sep-02 01:28N 53°29' E 009°59'0 0.0
2017-Sep-02 00:58N 53°29' E 009°59'0 0.0
2017-Sep-02 00:28N 53°29' E 009°59'0 0.0
2017-Sep-01 23:58N 53°29' E 009°59'0 0.0
2017-Sep-01 23:28N 53°29' E 009°59'0 0.0
2017-Sep-01 22:58N 53°29' E 009°59'0 0.0
2017-Sep-01 22:28N 53°29' E 009°59'0 0.0
2017-Sep-01 21:58N 53°29' E 009°59'0 0.0
2017-Sep-01 21:28N 53°29' E 009°59'0 0.0
2017-Sep-01 20:55N 53°29' E 009°59'0 0.0
2017-Sep-01 20:28N 53°29' E 009°59'0 0.0
2017-Sep-01 19:58N 53°29' E 009°59'0 0.0
2017-Sep-01 19:28N 53°29' E 009°59'0 0.0
2017-Sep-01 18:58N 53°29' E 009°59'0 0.0
2017-Sep-01 18:28N 53°29' E 009°59'1 1.1
2017-Sep-01 18:00N 53°30' E 009°59'1 2.4
2017-Sep-01 17:31N 53°31' E 009°57'3 5.9
2017-Sep-01 17:00N 53°33' E 009°53'3 6.8
2017-Sep-01 16:30N 53°33' E 009°48'3 6.7
2017-Sep-01 16:00N 53°34' E 009°42'3 6.8
2017-Sep-01 15:30N 53°35' E 009°37'4 8.4
2017-Sep-01 15:00N 53°38' E 009°32'5 9.8
2017-Sep-01 14:30N 53°43' E 009°29'5 9.4
2017-Sep-01 14:00N 53°46' E 009°24'5 9.2
2017-Sep-01 13:30N 53°50' E 009°20'5 9.1
2017-Sep-01 13:00N 53°53' E 009°14'4 8.2
2017-Sep-01 12:30N 53°53' E 009°07'4 7.9
2017-Sep-01 12:00N 53°51' E 009°01'4 8.3
2017-Sep-01 11:30N 53°50' E 008°54'4 8.5
2017-Sep-01 11:00N 53°51' E 008°46'4 7.3
2017-Sep-01 10:30N 53°53' E 008°42'5 9.1
2017-Sep-01 10:00N 53°57' E 008°38'4 7.9
2017-Sep-01 09:30N 53°58' E 008°31'4 7.8
2017-Sep-01 09:00N 53°59' E 008°25'5 9.9
2017-Sep-01 08:30N 53°59' E 008°16'510.5
2017-Sep-01 08:00N 53°59' E 008°08'510.0
2017-Sep-01 07:30N 53°58' E 007°59'610.7
2017-Sep-01 06:58N 53°57' E 007°50'4 8.3
2017-Sep-01 06:30N 53°55' E 007°44'5 8.4
2017-Sep-01 05:56N 53°55' E 007°35'4 8.8
2017-Sep-01 05:30N 53°54' E 007°29'9110.0
2017-Aug-31 20:28N 53°29' E 005°02'15011.1
2017-Aug-31 06:56N 51°35' E 002°23'512.3
2017-Aug-31 06:30N 51°31' E 002°17'611.9
2017-Aug-31 06:00N 51°25' E 002°13'611.8
2017-Aug-31 05:30N 51°20' E 002°09'611.7
2017-Aug-31 05:00N 51°15' E 002°05'611.5
2017-Aug-31 04:30N 51°11' E 001°58'611.5
2017-Aug-31 04:00N 51°08' E 001°50'611.3
2017-Aug-31 03:30N 51°05' E 001°43'611.0
2017-Aug-31 03:00N 51°01' E 001°37'510.7
2017-Aug-31 02:30N 50°56' E 001°32'510.2
2017-Aug-31 02:00N 50°52' E 001°28'5810.0
2017-Aug-30 20:10N 50°21' E 000°11'210.8
2017-Aug-30 20:00N 50°20' E 000°08'4611.3
2017-Aug-30 15:54N 50°08' W 001°02'912.7
2017-Aug-30 15:09N 50°07' W 001°17'212.9
2017-Aug-30 15:00N 50°06' W 001°20'613.0
2017-Aug-30 14:30N 50°04' W 001°29'713.1
2017-Aug-30 14:00N 50°02' W 001°39'613.1
2017-Aug-30 13:30N 50°01' W 001°49'713.1
2017-Aug-30 12:57N 49°59' W 001°60'3012.1
2017-Aug-30 10:28N 49°50' W 002°44'511.3
2017-Aug-30 10:00N 49°49' W 002°52'611.0
2017-Aug-30 09:27N 49°47' W 003°01'510.9
2017-Aug-30 09:00N 49°46' W 003°09'510.4
2017-Aug-30 08:30N 49°44' W 003°16'28510.9
2017-Aug-29 06:26N 51°12' W 010°22'  
Track history (hours):
 
Tides and Currents Weather Stations Pressure Air Temp Water Temp Dewpoint Dewpoint Depression Visibility Wind Speed Wind Dir Waves Ship Positions

Inzhener Veshnyakov

Last reported at 2017-Sep-07 12:05 UTC. Time now 2017-Oct-22 23:11 UTC.
Position N 71°20' E 029°31'.
Warning: this ship's position is 45 days out of date.

Length 131 m; draft 5.6 m.

Type: Cargo ship. MMSI: 273354480.

Date/timePositionNaut miles runAvg speedWind from/ knotsBaromVisibWave heightAir tempDewpointWater temp
2017-Sep-07 12:05N 71°20' E 029°31'112.1
2017-Sep-07 12:00N 71°20' E 029°27'  
2017-Sep-04 08:38N 61°03' E 004°15'214.0
2017-Sep-04 08:30N 61°01' E 004°15'713.6
2017-Sep-04 08:00N 60°55' E 004°16'35812.1
2017-Sep-03 02:23N 55°04' E 006°37'1111.7
2017-Sep-03 01:29N 54°54' E 006°43'6911.3
2017-Sep-02 19:21N 54°02' E 008°02'411.0
2017-Sep-02 19:00N 54°00' E 008°08'510.5
2017-Sep-02 18:30N 53°60' E 008°17'510.3
2017-Sep-02 18:00N 53°59' E 008°25'510.4
2017-Sep-02 17:30N 53°58' E 008°34'510.9
2017-Sep-02 17:00N 53°55' E 008°41'612.6
2017-Sep-02 16:30N 53°50' E 008°49'714.0
2017-Sep-02 16:00N 53°51' E 009°01'713.0
2017-Sep-02 15:30N 53°53' E 009°12'612.8
2017-Sep-02 15:00N 53°50' E 009°21'714.0
2017-Sep-02 14:30N 53°44' E 009°27'713.4
2017-Sep-02 14:00N 53°38' E 009°32'713.1
2017-Sep-02 13:31N 53°34' E 009°41'612.3
2017-Sep-02 13:00N 53°33' E 009°51'4 8.9
2017-Sep-02 12:31N 53°30' E 009°57'1 2.4
2017-Sep-02 11:58N 53°29' E 009°59'0 0.0
2017-Sep-02 11:28N 53°29' E 009°59'0 0.0
2017-Sep-02 10:58N 53°29' E 009°59'0 0.0
2017-Sep-02 10:28N 53°29' E 009°59'0 0.0
2017-Sep-02 09:58N 53°29' E 009°59'0 0.0
2017-Sep-02 09:28N 53°29' E 009°59'0 0.0
2017-Sep-02 08:58N 53°29' E 009°59'0 0.0
2017-Sep-02 08:28N 53°29' E 009°59'0 0.0
2017-Sep-02 07:58N 53°29' E 009°59'0 0.0
2017-Sep-02 07:28N 53°29' E 009°59'0 0.0
2017-Sep-02 06:58N 53°29' E 009°59'0 0.0
2017-Sep-02 06:28N 53°29' E 009°59'0 0.0
2017-Sep-02 05:58N 53°29' E 009°59'0 0.0
2017-Sep-02 05:28N 53°29' E 009°59'0 0.0
2017-Sep-02 04:58N 53°29' E 009°59'0 0.0
2017-Sep-02 04:28N 53°29' E 009°59'0 0.0
2017-Sep-02 03:58N 53°29' E 009°59'0 0.0
2017-Sep-02 03:28N 53°29' E 009°59'0 0.0
2017-Sep-02 02:58N 53°29' E 009°59'0 0.0
2017-Sep-02 02:28N 53°29' E 009°59'0 0.0
2017-Sep-02 01:58N 53°29' E 009°59'0 0.0
2017-Sep-02 01:28N 53°29' E 009°59'0 0.0
2017-Sep-02 00:58N 53°29' E 009°59'0 0.0
2017-Sep-02 00:28N 53°29' E 009°59'0 0.0
2017-Sep-01 23:58N 53°29' E 009°59'0 0.0
2017-Sep-01 23:28N 53°29' E 009°59'0 0.0
2017-Sep-01 22:58N 53°29' E 009°59'0 0.0
2017-Sep-01 22:28N 53°29' E 009°59'0 0.0
2017-Sep-01 21:58N 53°29' E 009°59'0 0.0
2017-Sep-01 21:28N 53°29' E 009°59'0 0.0
2017-Sep-01 20:55N 53°29' E 009°59'0 0.0
2017-Sep-01 20:28N 53°29' E 009°59'0 0.0
2017-Sep-01 19:58N 53°29' E 009°59'0 0.0
2017-Sep-01 19:28N 53°29' E 009°59'0 0.0
2017-Sep-01 18:58N 53°29' E 009°59'0 0.0
2017-Sep-01 18:28N 53°29' E 009°59'1 1.1
2017-Sep-01 18:00N 53°30' E 009°59'1 2.4
2017-Sep-01 17:31N 53°31' E 009°57'3 5.9
2017-Sep-01 17:00N 53°33' E 009°53'3 6.8
2017-Sep-01 16:30N 53°33' E 009°48'3 6.7
2017-Sep-01 16:00N 53°34' E 009°42'3 6.8
2017-Sep-01 15:30N 53°35' E 009°37'4 8.4
2017-Sep-01 15:00N 53°38' E 009°32'5 9.8
2017-Sep-01 14:30N 53°43' E 009°29'5 9.4
2017-Sep-01 14:00N 53°46' E 009°24'5 9.2
2017-Sep-01 13:30N 53°50' E 009°20'5 9.1
2017-Sep-01 13:00N 53°53' E 009°14'4 8.2
2017-Sep-01 12:30N 53°53' E 009°07'4 7.9
2017-Sep-01 12:00N 53°51' E 009°01'4 8.3
2017-Sep-01 11:30N 53°50' E 008°54'4 8.5
2017-Sep-01 11:00N 53°51' E 008°46'4 7.3
2017-Sep-01 10:30N 53°53' E 008°42'5 9.1
2017-Sep-01 10:00N 53°57' E 008°38'4 7.9
2017-Sep-01 09:30N 53°58' E 008°31'4 7.8
2017-Sep-01 09:00N 53°59' E 008°25'5 9.9
2017-Sep-01 08:30N 53°59' E 008°16'510.5
2017-Sep-01 08:00N 53°59' E 008°08'510.0
2017-Sep-01 07:30N 53°58' E 007°59'610.7
2017-Sep-01 06:58N 53°57' E 007°50'4 8.3
2017-Sep-01 06:30N 53°55' E 007°44'5 8.4
2017-Sep-01 05:56N 53°55' E 007°35'4 8.8
2017-Sep-01 05:30N 53°54' E 007°29'9110.0
2017-Aug-31 20:28N 53°29' E 005°02'15011.1
2017-Aug-31 06:56N 51°35' E 002°23'512.3
2017-Aug-31 06:30N 51°31' E 002°17'611.9
2017-Aug-31 06:00N 51°25' E 002°13'611.8
2017-Aug-31 05:30N 51°20' E 002°09'611.7
2017-Aug-31 05:00N 51°15' E 002°05'611.5
2017-Aug-31 04:30N 51°11' E 001°58'611.5
2017-Aug-31 04:00N 51°08' E 001°50'611.3
2017-Aug-31 03:30N 51°05' E 001°43'611.0
2017-Aug-31 03:00N 51°01' E 001°37'510.7
2017-Aug-31 02:30N 50°56' E 001°32'510.2
2017-Aug-31 02:00N 50°52' E 001°28'5810.0
2017-Aug-30 20:10N 50°21' E 000°11'210.8
2017-Aug-30 20:00N 50°20' E 000°08'4611.3
2017-Aug-30 15:54N 50°08' W 001°02'912.7
2017-Aug-30 15:09N 50°07' W 001°17'212.9
2017-Aug-30 15:00N 50°06' W 001°20'613.0
2017-Aug-30 14:30N 50°04' W 001°29'713.1
2017-Aug-30 14:00N 50°02' W 001°39'613.1
2017-Aug-30 13:30N 50°01' W 001°49'713.1
2017-Aug-30 12:57N 49°59' W 001°60'3012.1
2017-Aug-30 10:28N 49°50' W 002°44'511.3
2017-Aug-30 10:00N 49°49' W 002°52'611.0
2017-Aug-30 09:27N 49°47' W 003°01'510.9
2017-Aug-30 09:00N 49°46' W 003°09'510.4
2017-Aug-30 08:30N 49°44' W 003°16'28510.9
2017-Aug-29 06:26N 51°12' W 010°22'  

Dump ship's entire track history